Time;durP1;ratioP1;P1;durP2;ratioP2;P2;SDS_P1;SDS_P2;PMS_P1;PMS_P2;Temp;Humidity;BMP_temperature;BMP_pressure;BME280_temperature;BME280_humidity;BME280_pressure;Samples;Min_cycle;Max_cycle;Signal;HPM_P1;HPM_P2
2023/09/20 01:14:14;;;;;;;5.10;2.42;;;27.70;28.30;;;;;;5052236;28;20521;-74
2023/09/20 01:16:42;;;;;;;4.10;2.40;;;27.70;28.50;;;;;;5034992;28;20042;-74
2023/09/20 01:19:09;;;;;;;4.00;2.08;;;27.80;27.50;;;;;;5052499;28;20392;-74
2023/09/20 01:21:43;;;;;;;5.75;2.22;;;27.90;27.30;;;;;;5052405;28;20044;-71
2023/09/20 01:24:10;;;;;;;6.57;2.20;;;27.80;27.70;;;;;;5052448;28;20025;-75
2023/09/20 01:26:42;;;;;;;3.63;2.13;;;27.80;28.00;;;;;;5034852;28;20060;-74
2023/09/20 01:29:09;;;;;;;9.32;2.20;;;28.00;27.60;;;;;;5019329;28;20029;-74
2023/09/20 01:31:37;;;;;;;11.73;2.22;;;28.00;26.90;;;;;;5052219;28;20033;-73
2023/09/20 01:34:04;;;;;;;5.85;2.28;;;28.00;27.30;;;;;;5052264;28;20108;-74
2023/09/20 01:36:31;;;;;;;7.88;2.38;;;28.10;27.30;;;;;;5052233;28;20390;-74
2023/09/20 01:38:58;;;;;;;5.10;2.15;;;28.10;26.70;;;;;;5051393;28;20048;-74
2023/09/20 01:41:27;;;;;;;4.93;2.20;;;28.20;26.80;;;;;;5034553;28;20060;-74
2023/09/20 01:43:55;;;;;;;10.60;3.33;;;28.20;27.00;;;;;;5052025;28;20080;-73
2023/09/20 01:46:25;;;;;;;7.15;2.35;;;28.20;27.80;;;;;;5034544;28;20037;-74
2023/09/20 01:48:53;;;;;;;4.43;2.08;;;28.30;26.90;;;;;;5052103;28;20033;-74
2023/09/20 01:51:20;;;;;;;5.82;2.10;;;28.30;27.30;;;;;;5034323;28;20120;-74
2023/09/20 01:53:49;;;;;;;4.28;2.10;;;28.30;27.10;;;;;;5034450;28;20454;-73
2023/09/20 01:56:17;;;;;;;6.32;2.50;;;28.30;27.20;;;;;;5034395;28;20112;-74
2023/09/20 01:58:44;;;;;;;3.88;2.63;;;28.30;27.10;;;;;;5017972;28;20048;-74
2023/09/20 02:01:12;;;;;;;5.15;2.80;;;28.30;26.60;;;;;;5034062;28;20139;-74
2023/09/20 02:03:40;;;;;;;9.95;2.55;;;28.30;26.50;;;;;;5034221;28;20024;-74
2023/09/20 02:06:07;;;;;;;7.32;2.58;;;28.60;26.20;;;;;;5033923;28;20096;-74
2023/09/20 02:08:35;;;;;;;7.38;2.70;;;28.70;26.20;;;;;;5052043;28;20108;-74
2023/09/20 02:11:03;;;;;;;5.57;2.33;;;28.70;26.10;;;;;;5051528;28;20373;-74
2023/09/20 02:13:30;;;;;;;6.43;2.40;;;28.70;25.70;;;;;;5051592;28;20049;-74
2023/09/20 02:15:59;;;;;;;8.05;2.47;;;28.70;26.70;;;;;;5033994;28;20044;-74
2023/09/20 02:18:26;;;;;;;5.25;2.75;;;28.70;26.00;;;;;;5051526;28;20391;-73
2023/09/20 02:20:55;;;;;;;4.10;2.20;;;28.70;26.20;;;;;;5017303;28;20037;-73
2023/09/20 02:23:22;;;;;;;6.53;2.20;;;28.60;26.40;;;;;;5017839;28;20180;-74
2023/09/20 02:25:50;;;;;;;5.88;2.55;;;28.70;26.70;;;;;;5033930;28;20437;-74
2023/09/20 02:28:17;;;;;;;5.43;2.30;;;28.70;26.10;;;;;;5051908;28;20037;-74
2023/09/20 02:30:45;;;;;;;3.38;2.60;;;28.70;26.00;;;;;;5051674;28;20045;-74
2023/09/20 02:33:14;;;;;;;8.20;2.50;;;28.60;26.40;;;;;;5034150;28;20025;-74
2023/09/20 02:35:41;;;;;;;;;;;28.70;25.90;;;;;;5034958;28;20033;-74
2023/09/20 02:38:09;;;;;;;5.57;2.67;;;28.70;26.20;;;;;;5033885;28;19908;-74
2023/09/20 02:40:36;;;;;;;5.05;2.40;;;28.80;25.50;;;;;;5017408;28;20503;-74
2023/09/20 02:43:04;;;;;;;4.60;2.40;;;28.80;25.60;;;;;;5017539;28;20060;-74
2023/09/20 02:45:36;;;;;;;2.35;2.15;;;28.80;26.10;;;;;;5017958;28;20115;-74
2023/09/20 02:48:04;;;;;;;6.82;3.13;;;28.80;25.70;;;;;;5018839;28;20029;-74
2023/09/20 02:50:32;;;;;;;4.35;2.75;;;28.80;25.70;;;;;;5021487;28;20033;-73
2023/09/20 02:53:00;;;;;;;6.70;2.58;;;28.80;25.90;;;;;;5021211;28;20040;-74
2023/09/20 02:55:28;;;;;;;3.58;2.30;;;28.80;25.80;;;;;;5037685;28;20040;-73
2023/09/20 02:57:55;;;;;;;8.45;2.38;;;28.90;25.60;;;;;;5055243;28;20541;-74
2023/09/20 03:00:27;;;;;;;4.85;3.13;;;28.90;25.90;;;;;;5055017;28;20048;-74
2023/09/20 03:02:56;;;;;;;3.00;2.50;;;29.10;26.50;;;;;;5022238;28;20787;-74
2023/09/20 03:05:27;;;;;;;2.53;1.97;;;29.10;25.80;;;;;;5055261;28;20041;-73
2023/09/20 03:07:55;;;;;;;4.15;2.33;;;29.00;25.90;;;;;;5004744;28;20064;-74
2023/09/20 03:10:23;;;;;;;16.15;3.03;;;29.00;26.10;;;;;;5036987;28;20133;-73
2023/09/20 03:12:51;;;;;;;7.50;2.40;;;29.10;26.50;;;;;;5037377;28;20503;-74
2023/09/20 03:15:23;;;;;;;4.55;2.70;;;29.10;26.70;;;;;;5021218;28;20061;-74
2023/09/20 03:18:13;;;;;;;10.45;2.80;;;29.10;26.10;;;;;;5038122;28;20025;-74
2023/09/20 03:20:43;;;;;;;3.97;2.60;;;29.20;25.60;;;;;;5020738;28;20487;-74
2023/09/20 03:23:11;;;;;;;4.55;2.40;;;29.20;25.40;;;;;;5054947;28;20036;-73
2023/09/20 03:25:38;;;;;;;5.05;2.40;;;29.20;25.40;;;;;;5036941;28;20025;-74
2023/09/20 03:28:12;;;;;;;11.02;2.88;;;29.20;24.90;;;;;;5055193;28;20068;-73
2023/09/20 03:30:40;;;;;;;5.97;2.63;;;29.20;24.80;;;;;;5022157;28;20036;-74
2023/09/20 03:33:08;;;;;;;8.65;2.47;;;29.30;24.60;;;;;;5054677;28;20475;-74
2023/09/20 03:35:35;;;;;;;8.13;2.70;;;29.30;23.80;;;;;;5037427;28;20041;-74
2023/09/20 03:38:03;;;;;;;6.90;2.75;;;29.50;24.20;;;;;;5037151;28;20061;-73
2023/09/20 03:40:30;;;;;;;4.53;2.38;;;29.40;24.30;;;;;;5036940;28;20029;-74
2023/09/20 03:42:57;;;;;;;5.82;2.65;;;29.30;24.30;;;;;;5036669;28;20086;-74
2023/09/20 03:45:28;;;;;;;8.20;2.40;;;29.50;24.00;;;;;;5036697;28;20090;-73
2023/09/20 03:47:57;;;;;;;6.90;2.78;;;29.50;24.70;;;;;;5037106;28;20379;-73
2023/09/20 03:50:24;;;;;;;;;;;29.50;24.40;;;;;;5037538;28;20041;-73
2023/09/20 03:52:52;;;;;;;7.20;2.70;;;29.40;24.20;;;;;;5036650;28;19926;-73
2023/09/20 03:55:19;;;;;;;4.43;2.42;;;29.40;24.90;;;;;;5054269;28;20037;-74
2023/09/20 03:57:48;;;;;;;12.52;3.10;;;29.40;24.70;;;;;;5036759;28;20029;-74
2023/09/20 04:00:24;;;;;;;6.32;2.85;;;29.40;25.00;;;;;;5035858;28;20134;-74
2023/09/20 04:02:53;;;;;;;7.35;2.60;;;29.40;24.60;;;;;;5020990;28;20073;-74
2023/09/20 04:05:21;;;;;;;7.60;2.88;;;29.50;24.50;;;;;;5020013;28;20033;-74
2023/09/20 04:07:49;;;;;;;5.75;2.50;;;29.50;24.90;;;;;;5036347;28;20116;-74
2023/09/20 04:10:18;;;;;;;10.30;3.13;;;29.50;25.00;;;;;;5053481;28;20037;-74
2023/09/20 04:12:47;;;;;;;8.20;2.55;;;29.50;24.90;;;;;;5056641;28;20043;-74
2023/09/20 04:15:15;;;;;;;10.20;2.67;;;29.60;24.80;;;;;;5055587;28;20064;-74
2023/09/20 04:17:42;;;;;;;5.38;3.03;;;29.50;24.30;;;;;;5055989;28;20091;-74
2023/09/20 04:20:11;;;;;;;5.47;2.40;;;29.70;24.30;;;;;;5055770;28;20505;-74
2023/09/20 04:22:38;;;;;;;3.97;2.60;;;29.70;24.00;;;;;;5055754;28;20123;-73
2023/09/20 04:25:05;;;;;;;3.08;2.60;;;29.70;24.10;;;;;;5073626;28;20109;-74
2023/09/20 04:27:33;;;;;;;6.82;2.28;;;29.70;24.10;;;;;;5073397;28;20024;-74
2023/09/20 04:30:00;;;;;;;5.30;2.70;;;29.60;24.20;;;;;;5055789;28;20713;-73
2023/09/20 04:32:27;;;;;;;4.00;2.45;;;29.50;24.90;;;;;;5022720;28;20443;-73
2023/09/20 04:34:56;;;;;;;6.68;2.70;;;29.60;25.00;;;;;;5073413;28;20471;-73
2023/09/20 04:37:25;;;;;;;7.25;2.72;;;29.60;24.90;;;;;;5055915;28;20438;-74
2023/09/20 04:39:52;;;;;;;;;;;29.60;24.50;;;;;;5071687;28;20043;-74
2023/09/20 04:42:19;;;;;;;5.78;2.60;;;29.60;24.40;;;;;;5068580;28;19912;-74
2023/09/20 04:44:49;;;;;;;6.20;2.80;;;29.70;24.10;;;;;;5071893;28;20035;-73
2023/09/20 04:47:17;;;;;;;4.63;2.33;;;29.70;24.10;;;;;;5069879;28;20521;-74
2023/09/20 04:49:45;;;;;;;4.18;2.28;;;29.70;24.40;;;;;;5070885;28;20039;-77
2023/09/20 04:52:15;;;;;;;7.78;2.83;;;29.70;24.30;;;;;;5053908;28;20116;-74
2023/09/20 04:54:44;;;;;;;10.77;3.80;;;29.70;24.20;;;;;;5072772;28;20064;-74
2023/09/20 04:57:14;;;;;;;8.77;3.05;;;29.70;25.20;;;;;;5073448;28;20036;-74
2023/09/20 04:59:42;;;;;;;9.07;2.63;;;29.70;24.90;;;;;;5039742;28;20060;-74
2023/09/20 05:02:10;;;;;;;5.50;2.75;;;29.70;25.30;;;;;;5038844;28;20238;-74
2023/09/20 05:04:38;;;;;;;7.90;2.60;;;29.70;25.20;;;;;;5055168;28;20024;-74
2023/09/20 05:07:05;;;;;;;6.53;2.42;;;29.70;24.60;;;;;;5072921;28;20265;-73
2023/09/20 05:09:36;;;;;;;10.85;2.50;;;29.70;24.80;;;;;;5054669;28;20092;-74
2023/09/20 05:12:04;;;;;;;4.65;2.60;;;29.70;24.30;;;;;;5037508;28;20060;-74
2023/09/20 05:14:31;;;;;;;10.25;2.70;;;29.70;24.30;;;;;;5021738;28;20041;-74
2023/09/20 05:16:58;;;;;;;5.50;2.50;;;29.70;25.40;;;;;;5072896;28;20554;-74
2023/09/20 05:19:25;;;;;;;4.07;2.67;;;29.70;25.10;;;;;;5038593;28;20112;-74
2023/09/20 05:21:54;;;;;;;5.03;2.65;;;29.70;25.20;;;;;;5072785;28;20051;-74
2023/09/20 05:24:21;;;;;;;3.78;2.50;;;29.70;25.40;;;;;;5055074;28;20431;-75
2023/09/20 05:26:49;;;;;;;12.32;2.90;;;29.70;25.50;;;;;;5070811;28;20196;-74
2023/09/20 05:29:16;;;;;;;10.17;2.70;;;29.60;25.60;;;;;;5031787;28;20074;-74
2023/09/20 05:31:43;;;;;;;6.97;2.55;;;29.60;25.30;;;;;;5052367;28;20037;-74
2023/09/20 05:34:11;;;;;;;5.78;2.67;;;29.60;24.90;;;;;;5017881;28;20166;-74
2023/09/20 05:36:38;;;;;;;4.93;2.70;;;29.60;24.90;;;;;;5018507;28;20036;-74
2023/09/20 05:39:06;;;;;;;4.22;2.67;;;29.60;25.00;;;;;;5052049;28;20165;-74
2023/09/20 05:41:34;;;;;;;4.43;2.60;;;29.50;25.20;;;;;;5052424;28;20029;-74
2023/09/20 05:44:01;;;;;;;5.18;2.50;;;29.60;25.20;;;;;;5034544;28;20037;-74
2023/09/20 05:46:28;;;;;;;5.07;2.33;;;29.50;25.10;;;;;;5052136;28;20383;-74
2023/09/20 05:48:55;;;;;;;5.03;2.58;;;29.50;24.80;;;;;;5052284;28;20036;-75
2023/09/20 05:51:23;;;;;;;6.03;3.25;;;29.60;24.20;;;;;;5057836;28;20512;-75
2023/09/20 05:53:50;;;;;;;10.02;2.83;;;29.60;23.00;;;;;;5037165;28;20064;-74
2023/09/20 05:56:18;;;;;;;5.88;2.80;;;29.60;22.90;;;;;;5071940;28;20040;-74
2023/09/20 05:58:45;;;;;;;6.50;3.00;;;29.60;22.80;;;;;;5069955;28;20132;-72
2023/09/20 06:01:13;;;;;;;5.40;3.20;;;29.60;22.50;;;;;;5053594;28;20116;-74
2023/09/20 06:03:40;;;;;;;5.28;2.92;;;29.60;22.50;;;;;;5049261;28;20047;-73
2023/09/20 06:06:07;;;;;;;6.70;3.35;;;29.60;22.60;;;;;;5051419;28;20120;-74
2023/09/20 06:08:36;;;;;;;6.13;3.00;;;29.60;22.40;;;;;;5050905;28;20044;-74
2023/09/20 06:11:06;;;;;;;3.87;2.70;;;29.60;22.70;;;;;;5069365;28;20044;-73
2023/09/20 06:13:34;;;;;;;9.00;2.90;;;29.60;22.50;;;;;;5069051;28;20525;-73
2023/09/20 06:16:03;;;;;;;3.45;2.30;;;29.60;22.50;;;;;;5032946;28;20051;-73
2023/09/20 06:18:30;;;;;;;6.88;2.70;;;29.50;23.00;;;;;;5034626;28;20516;-73
2023/09/20 06:21:01;;;;;;;5.15;2.78;;;29.50;23.00;;;;;;5034270;28;20045;-73
2023/09/20 06:23:29;;;;;;;3.92;2.58;;;29.50;23.10;;;;;;5057182;28;20037;-73
2023/09/20 06:26:03;;;;;;;3.75;2.85;;;29.50;22.90;;;;;;5071006;28;20429;-73
2023/09/20 06:28:31;;;;;;;7.75;3.03;;;29.50;23.00;;;;;;5069317;28;20056;-74
2023/09/20 06:30:59;;;;;;;3.92;2.50;;;29.50;23.20;;;;;;5072149;28;20139;-75
2023/09/20 06:33:26;;;;;;;4.72;2.67;;;29.50;23.00;;;;;;5072383;28;20386;-75
2023/09/20 06:35:55;;;;;;;7.63;2.70;;;29.50;22.80;;;;;;5038212;28;20072;-74
2023/09/20 06:38:23;;;;;;;6.22;2.90;;;29.50;22.90;;;;;;5073215;28;20044;-74
2023/09/20 06:40:55;;;;;;;10.13;2.87;;;29.50;22.20;;;;;;5072772;28;20568;-73
2023/09/20 06:43:22;;;;;;;8.77;2.80;;;29.50;21.60;;;;;;5035509;28;20634;-73
2023/09/20 06:45:51;;;;;;;8.10;2.85;;;29.50;21.70;;;;;;5035121;28;20491;-77
2023/09/20 06:48:22;;;;;;;6.97;2.70;;;29.40;22.00;;;;;;5018531;28;20032;-75
2023/09/20 06:50:50;;;;;;;5.35;2.80;;;29.40;21.70;;;;;;5018634;28;20049;-76
2023/09/20 06:53:18;;;;;;;9.50;2.80;;;29.50;21.80;;;;;;5072666;28;20127;-76
2023/09/20 06:55:49;;;;;;;6.65;2.95;;;29.50;21.40;;;;;;5021861;28;20044;-76
2023/09/20 06:58:16;;;;;;;5.40;2.60;;;29.40;21.50;;;;;;5055338;28;20502;-77
2023/09/20 07:00:43;;;;;;;6.78;2.78;;;29.40;21.80;;;;;;5072251;28;20043;-76
2023/09/20 07:03:11;;;;;;;5.93;2.90;;;29.30;22.00;;;;;;5072233;28;20430;-74
2023/09/20 07:05:39;;;;;;;5.40;2.92;;;29.30;22.10;;;;;;5054691;28;20387;-73
2023/09/20 07:08:08;;;;;;;3.88;2.88;;;29.30;22.20;;;;;;5072504;28;20028;-73
2023/09/20 07:10:36;;;;;;;3.83;2.53;;;29.30;22.20;;;;;;5072297;28;20041;-74
2023/09/20 07:13:05;;;;;;;3.47;2.80;;;29.20;22.20;;;;;;5072323;28;20080;-74
2023/09/20 07:15:34;;;;;;;5.40;2.88;;;29.20;22.50;;;;;;5066025;28;20043;-75
2023/09/20 07:18:11;;;;;;;4.85;2.83;;;29.20;22.30;;;;;;5049349;28;20087;-75
2023/09/20 07:20:42;;;;;;;5.05;2.83;;;29.20;22.60;;;;;;5039669;28;20036;-75
2023/09/20 07:23:12;;;;;;;5.60;2.80;;;29.10;22.60;;;;;;5033337;28;20041;-75
2023/09/20 07:25:39;;;;;;;6.78;2.90;;;29.10;22.50;;;;;;5052508;28;20039;-75
2023/09/20 07:28:07;;;;;;;9.20;2.55;;;29.10;22.40;;;;;;5034420;28;20033;-75
2023/09/20 07:30:40;;;;;;;3.38;2.75;;;29.10;22.30;;;;;;5047135;28;20039;-75
2023/09/20 07:33:11;;;;;;;5.38;2.90;;;29.00;22.60;;;;;;5052167;28;20124;-75
2023/09/20 07:35:39;;;;;;;3.67;2.50;;;29.00;22.70;;;;;;5017164;28;20033;-76
2023/09/20 07:38:17;;;;;;;4.68;2.78;;;28.90;22.80;;;;;;5034035;28;20383;-76
2023/09/20 07:40:50;;;;;;;4.50;2.70;;;28.90;22.90;;;;;;5027318;28;20490;-76
2023/09/20 07:43:18;;;;;;;5.95;2.70;;;28.90;22.70;;;;;;5053208;28;20040;-75
2023/09/20 07:45:45;;;;;;;4.70;2.70;;;28.80;22.80;;;;;;5034130;28;20194;-76
2023/09/20 07:48:13;;;;;;;3.88;2.60;;;28.80;22.70;;;;;;5042181;28;20025;-76
2023/09/20 07:50:42;;;;;;;6.15;2.72;;;28.80;22.80;;;;;;5053146;28;20379;-75
2023/09/20 07:53:10;;;;;;;4.22;2.85;;;28.80;23.00;;;;;;5030632;28;20037;-76
2023/09/20 07:55:44;;;;;;;7.57;2.97;;;28.80;23.20;;;;;;5033499;28;20040;-75
2023/09/20 07:58:14;;;;;;;6.18;3.05;;;28.80;23.00;;;;;;5050123;28;20543;-75
2023/09/20 08:00:45;;;;;;;4.43;2.75;;;28.70;23.00;;;;;;5064497;28;20032;-77
2023/09/20 08:03:13;;;;;;;5.93;3.13;;;28.70;23.10;;;;;;5018289;28;20131;-73
2023/09/20 08:05:41;;;;;;;5.68;3.47;;;28.60;23.20;;;;;;5035860;28;20041;-73
2023/09/20 08:08:09;;;;;;;8.10;3.72;;;28.60;23.40;;;;;;5053339;28;20110;-74
2023/09/20 08:10:37;;;;;;;5.68;3.05;;;28.60;23.80;;;;;;5068962;28;20410;-75
2023/09/20 08:13:05;;;;;;;4.93;2.90;;;28.50;23.70;;;;;;5020401;28;20117;-81
2023/09/20 08:15:41;;;;;;;7.13;3.60;;;28.50;23.90;;;;;;5050981;28;20037;-76
2023/09/20 08:20:58;;;;;;;7.93;3.53;;;28.50;23.80;;;;;;5038433;28;20533;-75
2023/09/20 08:59:53;;;;;;;64.60;41.75;;;28.10;24.10;;;;;;5050186;28;20047;-76
2023/09/20 09:02:22;;;;;;;97.53;66.72;;;28.10;24.10;;;;;;5038942;28;20120;-77
2023/09/20 09:04:53;;;;;;;224.15;136.43;;;28.00;24.20;;;;;;5069040;28;20072;-74
2023/09/20 09:07:24;;;;;;;79.97;53.38;;;28.00;24.30;;;;;;5068194;28;20111;-72
2023/09/20 09:09:52;;;;;;;17.52;14.77;;;28.00;24.50;;;;;;5051911;28;20119;-75
2023/09/20 09:12:19;;;;;;;11.02;5.20;;;28.00;24.50;;;;;;5033475;28;20040;-74
2023/09/20 09:14:48;;;;;;;5.82;3.72;;;27.90;24.60;;;;;;5048226;28;20159;-74
2023/09/20 09:17:16;;;;;;;5.65;3.28;;;27.80;24.50;;;;;;5047982;28;20450;-75
2023/09/20 09:19:43;;;;;;;4.47;3.13;;;27.80;24.70;;;;;;5032195;28;20041;-75
2023/09/20 09:22:12;;;;;;;7.60;3.92;;;27.80;25.10;;;;;;5031957;28;20513;-74
2023/09/20 09:24:47;;;;;;;5.20;2.90;;;27.80;24.90;;;;;;5050002;28;20037;-76
2023/09/20 09:27:15;;;;;;;5.38;2.95;;;27.80;24.90;;;;;;5029589;28;20033;-75
2023/09/20 09:29:43;;;;;;;6.10;3.10;;;27.80;24.70;;;;;;5049589;28;20132;-75
2023/09/20 09:32:10;;;;;;;4.90;3.30;;;27.80;24.70;;;;;;5015130;28;20123;-77
2023/09/20 09:34:44;;;;;;;7.68;3.63;;;27.80;24.90;;;;;;5031821;28;20025;-74
2023/09/20 09:37:11;;;;;;;4.82;3.40;;;27.70;25.10;;;;;;5032439;28;20037;-74
2023/09/20 09:39:39;;;;;;;8.00;3.53;;;27.70;25.40;;;;;;5030749;28;20044;-73
2023/09/20 09:42:07;;;;;;;8.80;3.65;;;27.60;25.90;;;;;;5033383;28;20119;-72
2023/09/20 09:44:52;;;;;;;10.90;3.75;;;27.50;25.80;;;;;;5011164;28;20398;-73
2023/09/20 09:47:19;;;;;;;9.30;3.90;;;27.50;26.00;;;;;;5029422;28;20037;-73
2023/09/20 09:49:49;;;;;;;5.45;3.78;;;27.40;26.30;;;;;;5016303;28;20148;-71
2023/09/20 09:52:18;;;;;;;7.75;4.40;;;27.30;26.30;;;;;;5030983;28;20033;-73
2023/09/20 09:54:46;;;;;;;6.90;3.63;;;27.30;26.90;;;;;;5049307;28;20087;-73
2023/09/20 09:57:13;;;;;;;7.90;4.13;;;27.30;26.90;;;;;;5015535;28;20574;-73
2023/09/20 09:59:41;;;;;;;6.45;3.90;;;27.20;26.80;;;;;;5030722;28;20041;-74
2023/09/20 10:02:20;;;;;;;12.75;3.45;;;27.20;27.20;;;;;;5048131;28;20044;-75
2023/09/20 10:05:09;;;;;;;11.60;4.25;;;27.20;27.00;;;;;;5031190;28;20055;-74
2023/09/20 10:07:38;;;;;;;;;;;27.10;27.80;;;;;;5031808;28;20026;-73
2023/09/20 10:10:12;;;;;;;7.97;3.88;;;27.00;28.20;;;;;;5030385;28;19916;-74
2023/09/20 10:12:45;;;;;;;10.13;4.70;;;26.80;27.90;;;;;;5051058;28;20045;-72
2023/09/20 10:15:14;;;;;;;10.27;5.07;;;26.80;28.60;;;;;;5067079;28;20029;-74
2023/09/20 10:18:00;;;;;;;18.05;4.68;;;26.80;28.70;;;;;;5033727;28;20037;-76
2023/09/20 10:20:58;;;;;;;13.10;4.80;;;26.80;28.90;;;;;;5055999;28;20029;-73
2023/09/20 10:23:26;;;;;;;11.90;4.82;;;26.70;29.00;;;;;;5019908;28;20058;-73
2023/09/20 10:25:56;;;;;;;16.48;5.07;;;26.70;29.30;;;;;;5050619;28;20033;-72
2023/09/20 10:28:24;;;;;;;;;;;26.70;29.60;;;;;;5039828;28;20079;-73
2023/09/20 10:31:04;;;;;;;19.50;5.80;;;26.70;30.00;;;;;;5051262;28;19917;-73
2023/09/20 10:33:45;;;;;;;12.00;4.82;;;26.60;30.40;;;;;;5068964;28;20410;-75
2023/09/20 10:36:19;;;;;;;17.58;4.63;;;26.50;30.30;;;;;;5032219;28;20056;-75
2023/09/20 10:38:47;;;;;;;20.25;5.80;;;26.50;30.30;;;;;;5029987;28;20049;-75
2023/09/20 10:41:16;;;;;;;19.83;5.43;;;26.40;30.50;;;;;;5044917;28;20463;-75
2023/09/20 10:43:46;;;;;;;23.17;5.68;;;26.40;30.70;;;;;;5032239;28;20489;-75
2023/09/20 10:46:17;;;;;;;17.23;4.95;;;26.30;30.90;;;;;;5048572;28;20095;-75
2023/09/20 10:48:53;;;;;;;12.88;5.05;;;26.30;32.60;;;;;;5034688;28;20569;-75
2023/09/20 10:51:39;;;;;;;19.85;6.45;;;26.20;31.70;;;;;;5043138;28;20514;-75
2023/09/20 10:54:26;;;;;;;21.55;6.80;;;26.20;31.10;;;;;;5048873;28;20521;-75
2023/09/20 10:56:54;;;;;;;13.45;6.38;;;26.30;32.10;;;;;;5050403;28;20155;-75
2023/09/20 10:59:23;;;;;;;11.23;5.00;;;26.10;32.50;;;;;;5049571;28;20044;-75
2023/09/20 11:01:54;;;;;;;15.05;5.68;;;26.10;33.30;;;;;;5034053;28;20059;-75
2023/09/20 11:04:23;;;;;;;15.80;6.40;;;26.00;33.70;;;;;;5050957;28;20021;-75
2023/09/20 11:06:52;;;;;;;22.25;6.53;;;25.90;33.50;;;;;;5050174;28;20456;-75
2023/09/20 11:09:23;;;;;;;26.20;6.00;;;25.90;33.30;;;;;;5033837;28;20044;-75
2023/09/20 11:11:53;;;;;;;19.88;5.40;;;25.90;32.90;;;;;;5070422;28;20167;-76
2023/09/20 11:14:21;;;;;;;16.65;6.05;;;25.90;32.70;;;;;;5052051;28;20037;-76
2023/09/20 11:16:49;;;;;;;11.45;5.50;;;25.90;32.50;;;;;;5071907;28;20123;-76
2023/09/20 11:19:18;;;;;;;17.52;5.68;;;25.90;33.30;;;;;;5053385;28;20103;-76
2023/09/20 11:21:46;;;;;;;16.20;5.50;;;25.80;34.60;;;;;;5051066;28;20033;-75
2023/09/20 11:24:16;;;;;;;11.38;5.20;;;25.80;34.30;;;;;;5050555;28;20130;-75
2023/09/20 11:26:45;;;;;;;18.92;5.90;;;25.70;34.20;;;;;;5035622;28;20033;-76
2023/09/20 11:29:12;;;;;;;19.15;7.22;;;25.70;34.60;;;;;;5052865;28;20474;-76
2023/09/20 11:31:41;;;;;;;14.45;5.75;;;25.60;34.70;;;;;;5032131;28;20045;-75
2023/09/20 11:34:08;;;;;;;16.20;5.68;;;25.60;34.80;;;;;;5041476;28;20040;-75
2023/09/20 11:36:45;;;;;;;10.35;5.10;;;25.60;34.00;;;;;;5016379;28;20086;-75
2023/09/20 11:39:17;;;;;;;10.60;5.28;;;25.60;33.90;;;;;;5045042;28;20090;-75
2023/09/20 11:41:45;;;;;;;13.25;5.45;;;25.60;33.20;;;;;;5032170;28;20498;-75
2023/09/20 11:44:12;;;;;;;10.93;5.65;;;25.60;33.20;;;;;;5051413;28;20042;-75
2023/09/20 11:46:47;;;;;;;23.80;5.93;;;25.60;33.50;;;;;;5029691;28;20600;-72
2023/09/20 11:49:14;;;;;;;23.60;5.32;;;25.30;44.60;;;;;;5068679;28;20127;-72
2023/09/20 11:51:43;;;;;;;29.65;5.88;;;24.60;52.10;;;;;;5017409;28;20503;-75
2023/09/20 11:54:10;;;;;;;26.85;5.75;;;23.80;57.60;;;;;;5052574;28;20131;-72
2023/09/20 11:56:38;;;;;;;40.20;7.07;;;23.40;60.70;;;;;;5050295;28;20106;-74
2023/09/20 11:59:10;;;;;;;35.22;6.50;;;22.80;63.40;;;;;;5071057;28;20036;-74
2023/09/20 12:01:44;;;;;;;59.58;9.23;;;22.50;64.70;;;;;;5050722;28;20087;-72
2023/09/20 12:04:13;;;;;;;41.53;7.97;;;22.20;67.10;;;;;;5066562;28;20025;-77
2023/09/20 12:06:40;;;;;;;44.03;7.23;;;22.10;67.90;;;;;;5067102;28;20542;-74
2023/09/20 12:09:09;;;;;;;34.53;6.85;;;21.80;69.50;;;;;;5051947;28;20350;-73
2023/09/20 12:11:36;;;;;;;39.90;7.30;;;21.50;70.90;;;;;;5051922;28;20127;-75
2023/09/20 12:14:04;;;;;;;40.33;6.93;;;21.30;72.00;;;;;;5035999;28;20055;-74
2023/09/20 12:16:31;;;;;;;45.63;7.00;;;21.30;72.70;;;;;;5071585;28;20487;-75
2023/09/20 12:18:58;;;;;;;47.38;8.13;;;21.30;73.30;;;;;;5054390;28;20024;-73
2023/09/20 12:21:26;;;;;;;40.30;7.95;;;21.10;74.00;;;;;;5037234;28;20062;-74
2023/09/20 12:23:53;;;;;;;49.70;7.78;;;21.00;74.40;;;;;;5052858;28;20040;-74
2023/09/20 12:26:20;;;;;;;41.08;7.50;;;20.80;75.00;;;;;;5053832;28;20052;-72
2023/09/20 12:28:48;;;;;;;42.58;7.72;;;20.70;75.10;;;;;;5072140;28;20128;-72
2023/09/20 12:31:19;;;;;;;43.78;6.78;;;20.70;75.80;;;;;;5071833;28;20401;-73
2023/09/20 12:33:46;;;;;;;42.97;6.95;;;20.50;76.30;;;;;;5054917;28;20032;-72
2023/09/20 12:36:14;;;;;;;52.88;8.38;;;20.60;75.90;;;;;;5052882;28;20040;-72
2023/09/20 12:38:42;;;;;;;35.38;7.28;;;20.60;76.10;;;;;;5051993;28;20497;-74
2023/09/20 12:41:09;;;;;;;40.20;6.68;;;20.50;76.50;;;;;;5070372;28;20265;-76
2023/09/20 12:43:37;;;;;;;45.00;7.68;;;20.40;77.00;;;;;;5035561;28;20044;-73
2023/09/20 12:46:06;;;;;;;42.75;7.60;;;20.40;77.40;;;;;;5054026;28;20490;-75
2023/09/20 12:48:36;;;;;;;43.58;7.15;;;20.50;77.00;;;;;;5034657;28;20095;-73
2023/09/20 12:51:07;;;;;;;41.00;6.82;;;20.30;77.70;;;;;;5068433;28;20508;-73
2023/09/20 12:53:35;;;;;;;49.00;6.95;;;20.20;77.90;;;;;;5070429;28;20037;-73
2023/09/20 12:56:05;;;;;;;43.75;7.38;;;20.20;78.30;;;;;;5037965;28;20140;-73
2023/09/20 12:58:32;;;;;;;37.22;7.05;;;20.20;78.30;;;;;;5038913;28;20028;-72
2023/09/20 13:00:59;;;;;;;37.05;7.05;;;20.20;78.80;;;;;;5054525;28;20131;-73
2023/09/20 13:03:29;;;;;;;47.00;7.90;;;20.00;79.30;;;;;;5072870;28;20094;-73
2023/09/20 13:05:56;;;;;;;50.35;6.63;;;20.00;79.60;;;;;;5055044;28;20090;-73
2023/09/20 13:08:25;;;;;;;38.95;7.10;;;20.10;79.70;;;;;;5053645;28;20021;-72
2023/09/20 13:10:52;;;;;;;41.28;6.63;;;20.10;79.70;;;;;;5072034;28;20040;-74
2023/09/20 13:13:20;;;;;;;36.58;6.50;;;20.20;79.90;;;;;;5037275;28;20478;-74
2023/09/20 13:15:48;;;;;;;40.28;6.63;;;20.10;80.10;;;;;;5054694;28;20119;-74
2023/09/20 13:18:16;;;;;;;39.05;7.30;;;20.10;80.00;;;;;;5034895;28;20029;-72
2023/09/20 13:20:43;;;;;;;36.83;6.72;;;20.10;80.40;;;;;;5045981;28;20043;-75
2023/09/20 13:23:12;;;;;;;38.80;7.20;;;20.00;80.40;;;;;;5036182;28;20036;-73
2023/09/20 13:25:41;;;;;;;42.08;6.05;;;19.90;80.80;;;;;;5054361;28;20072;-76
2023/09/20 13:28:09;;;;;;;37.15;6.85;;;19.90;80.70;;;;;;5034108;28;20032;-73
2023/09/20 13:30:40;;;;;;;35.90;6.90;;;19.90;80.80;;;;;;5041906;28;20067;-73
2023/09/20 13:33:10;;;;;;;34.88;5.93;;;19.80;80.30;;;;;;5070812;28;20483;-72
2023/09/20 13:35:39;;;;;;;37.53;6.43;;;19.80;80.10;;;;;;5069572;28;20063;-74
2023/09/20 13:38:06;;;;;;;37.80;6.35;;;19.80;79.90;;;;;;5070421;28;20457;-75
2023/09/20 13:40:36;;;;;;;38.75;5.75;;;19.80;79.80;;;;;;5070349;28;20028;-74
2023/09/20 13:43:03;;;;;;;29.52;5.53;;;19.80;79.70;;;;;;5048332;28;20032;-74
2023/09/20 13:45:32;;;;;;;38.65;5.72;;;19.70;79.60;;;;;;5069441;28;20036;-76
2023/09/20 13:48:00;;;;;;;32.70;5.53;;;19.80;79.30;;;;;;5069918;28;20074;-73
2023/09/20 13:50:27;;;;;;;38.63;6.70;;;19.80;79.20;;;;;;5052697;28;20047;-75
2023/09/20 13:52:56;;;;;;;38.67;6.78;;;19.90;79.30;;;;;;5072369;28;20091;-72
2023/09/20 13:55:24;;;;;;;37.38;6.60;;;19.80;79.70;;;;;;5037718;28;20032;-75
2023/09/20 13:57:51;;;;;;;36.58;6.53;;;19.80;80.00;;;;;;5054186;28;20029;-73
2023/09/20 14:00:18;;;;;;;33.75;5.53;;;19.80;79.70;;;;;;5049578;28;20045;-74
2023/09/20 14:02:46;;;;;;;38.60;6.03;;;19.80;80.00;;;;;;5046065;28;20525;-74
2023/09/20 14:05:15;;;;;;;38.55;5.40;;;19.70;80.00;;;;;;5036852;28;20044;-75
2023/09/20 14:07:44;;;;;;;34.05;5.47;;;19.80;79.90;;;;;;5053588;28;20037;-74
2023/09/20 14:10:12;;;;;;;33.85;5.70;;;19.80;79.70;;;;;;5052873;28;20483;-75
2023/09/20 14:12:43;;;;;;;40.63;5.88;;;19.80;79.50;;;;;;5071037;28;20167;-74
2023/09/20 14:15:18;;;;;;;32.50;5.53;;;19.80;79.20;;;;;;5053603;28;20613;-73
2023/09/20 14:17:46;;;;;;;32.33;6.07;;;19.80;78.60;;;;;;5036171;28;20033;-74
2023/09/20 14:20:20;;;;;;;33.85;6.28;;;19.80;78.50;;;;;;5052853;28;20340;-73
2023/09/20 14:22:52;;;;;;;37.38;6.15;;;19.80;78.80;;;;;;5039707;28;20502;-74
2023/09/20 14:25:23;;;;;;;36.13;6.07;;;19.80;78.90;;;;;;5071230;28;20811;-74
2023/09/20 14:27:51;;;;;;;35.67;6.20;;;19.70;79.10;;;;;;5053485;28;20029;-73
2023/09/20 14:30:20;;;;;;;33.65;5.60;;;19.70;79.40;;;;;;5033142;28;20116;-74
2023/09/20 14:32:53;;;;;;;30.10;5.63;;;19.70;79.50;;;;;;5053361;28;20028;-74
2023/09/20 14:35:22;;;;;;;31.85;5.22;;;19.80;79.10;;;;;;5069892;28;20037;-74
2023/09/20 14:37:51;;;;;;;35.55;6.13;;;19.80;79.00;;;;;;5052766;28;20028;-75
2023/09/20 14:40:18;;;;;;;32.50;6.17;;;19.70;79.20;;;;;;5053122;28;20494;-75
2023/09/20 14:42:47;;;;;;;34.38;5.53;;;19.70;79.00;;;;;;5059725;28;20029;-74
2023/09/20 14:45:22;;;;;;;29.00;5.22;;;19.70;78.90;;;;;;5073159;28;20054;-74